createdAt,value
2018-12-16T00:01:31.603Z,27.30
2018-12-16T00:03:59.436Z,27.40
2018-12-16T00:06:27.964Z,27.50
2018-12-16T00:08:55.867Z,27.60
2018-12-16T00:11:23.686Z,27.60
2018-12-16T00:13:51.740Z,27.40
2018-12-16T00:16:19.854Z,27.40
2018-12-16T00:18:47.969Z,27.70
2018-12-16T00:21:15.829Z,27.70
2018-12-16T00:23:43.740Z,27.80
2018-12-16T00:26:12.173Z,27.80
2018-12-16T00:28:39.859Z,27.90
2018-12-16T00:31:08.602Z,27.70
2018-12-16T00:33:36.643Z,27.80
2018-12-16T00:36:04.525Z,27.80
2018-12-16T00:38:33.082Z,27.90
2018-12-16T00:41:01.144Z,27.90
2018-12-16T00:43:29.554Z,28.00
2018-12-16T00:45:57.684Z,28.20
2018-12-16T00:48:25.350Z,28.30
2018-12-16T00:50:53.578Z,28.30
2018-12-16T00:53:22.018Z,28.30
2018-12-16T00:55:49.627Z,28.20
2018-12-16T00:58:18.075Z,28.30
2018-12-16T01:00:46.004Z,28.50
2018-12-16T01:03:13.979Z,28.40
2018-12-16T01:05:42.258Z,28.50
2018-12-16T01:08:10.209Z,28.30
2018-12-16T01:10:38.506Z,28.50
2018-12-16T01:13:06.306Z,28.60
2018-12-16T01:15:34.825Z,28.70
2018-12-16T01:18:02.612Z,28.50
2018-12-16T01:20:30.290Z,28.80
2018-12-16T01:22:57.899Z,28.50
2018-12-16T01:25:25.727Z,28.70
2018-12-16T01:27:53.641Z,28.40
2018-12-16T01:30:21.483Z,28.50
2018-12-16T01:32:49.323Z,28.50
2018-12-16T01:35:16.971Z,28.20
2018-12-16T01:37:44.559Z,28.30
2018-12-16T01:40:12.556Z,28.80
2018-12-16T01:42:40.385Z,28.90
2018-12-16T01:45:08.834Z,28.30
2018-12-16T01:47:36.431Z,28.50
2018-12-16T01:50:04.855Z,28.30
2018-12-16T01:52:32.767Z,28.30
2018-12-16T01:55:00.782Z,28.30
2018-12-16T01:57:28.520Z,28.00
2018-12-16T01:59:56.281Z,27.80
2018-12-16T02:02:24.180Z,28.00
2018-12-16T02:04:51.759Z,28.30
2018-12-16T02:07:19.553Z,27.80
2018-12-16T02:09:47.426Z,28.00
2018-12-16T02:12:16.550Z,28.10
2018-12-16T02:14:44.933Z,28.00
2018-12-16T02:17:12.786Z,27.90
2018-12-16T02:19:40.518Z,28.10
2018-12-16T02:22:08.531Z,28.50
2018-12-16T02:24:36.235Z,27.80
2018-12-16T02:27:04.382Z,27.90
2018-12-16T02:29:32.062Z,28.30
2018-12-16T02:31:59.798Z,28.10
2018-12-16T02:34:27.710Z,28.10
2018-12-16T02:36:55.375Z,27.90
2018-12-16T02:39:23.111Z,28.20
2018-12-16T02:41:51.403Z,28.50
2018-12-16T02:44:19.354Z,28.10
2018-12-16T02:46:46.939Z,28.10
2018-12-16T02:49:14.567Z,28.10
2018-12-16T02:51:42.200Z,27.80
2018-12-16T02:54:10.061Z,28.20
2018-12-16T02:56:37.828Z,28.20
2018-12-16T02:59:05.916Z,28.10
2018-12-16T03:01:33.473Z,28.10
2018-12-16T03:04:01.225Z,28.30
2018-12-16T03:06:29.106Z,28.20
2018-12-16T03:08:57.636Z,28.50
2018-12-16T03:11:25.275Z,28.20
2018-12-16T03:13:53.179Z,28.40
2018-12-16T03:16:20.971Z,28.00
2018-12-16T03:18:48.695Z,28.10
2018-12-16T03:21:16.975Z,28.30
2018-12-16T03:23:44.876Z,28.20
2018-12-16T03:26:12.749Z,28.30
2018-12-16T03:28:40.898Z,28.30
2018-12-16T03:31:08.508Z,28.20
2018-12-16T03:33:36.838Z,28.60
2018-12-16T03:36:04.902Z,28.50
2018-12-16T03:38:32.660Z,28.30
2018-12-16T03:41:00.656Z,28.50
2018-12-16T03:43:28.454Z,28.30
2018-12-16T03:45:56.085Z,28.60
2018-12-16T03:48:23.707Z,28.40
2018-12-16T03:50:51.515Z,28.30
2018-12-16T03:53:20.130Z,28.40
2018-12-16T03:55:48.176Z,28.30
2018-12-16T03:58:16.015Z,28.50
2018-12-16T04:00:43.740Z,28.40
2018-12-16T04:03:11.497Z,28.20
2018-12-16T04:05:39.380Z,28.70
2018-12-16T04:08:07.221Z,28.80
2018-12-16T04:10:35.977Z,29.50
2018-12-16T04:13:03.711Z,30.70
2018-12-16T04:15:31.575Z,32.50
2018-12-16T04:17:59.302Z,35.00
2018-12-16T04:20:27.333Z,38.70
2018-12-16T04:22:55.163Z,38.10
2018-12-16T04:25:22.940Z,40.50
2018-12-16T04:27:51.589Z,41.50
2018-12-16T04:30:20.599Z,42.80
2018-12-16T04:32:48.535Z,42.90
2018-12-16T04:35:16.253Z,46.40
2018-12-16T04:37:43.824Z,47.70
2018-12-16T04:40:12.477Z,49.00
2018-12-16T04:42:40.991Z,50.10
2018-12-16T04:45:08.923Z,48.80
2018-12-16T04:47:36.753Z,45.10
2018-12-16T04:50:05.251Z,44.60
2018-12-16T04:52:32.816Z,46.20
2018-12-16T04:55:00.766Z,46.70
2018-12-16T04:57:28.727Z,46.50
2018-12-16T04:59:56.644Z,46.90
2018-12-16T05:02:24.915Z,46.60
2018-12-16T05:04:52.605Z,45.90
2018-12-16T05:07:21.431Z,48.10
2018-12-16T05:09:50.626Z,49.70
2018-12-16T05:12:18.231Z,52.30
2018-12-16T05:14:46.264Z,50.60
2018-12-16T05:17:15.370Z,51.50
2018-12-16T05:19:43.054Z,50.30
2018-12-16T05:22:10.649Z,50.70
2018-12-16T05:24:38.887Z,53.10
2018-12-16T05:27:07.853Z,54.30
2018-12-16T05:29:35.599Z,56.30
2018-12-16T05:32:03.239Z,60.00
2018-12-16T05:34:30.792Z,61.70
2018-12-16T05:36:58.825Z,61.60
2018-12-16T05:39:27.097Z,60.40
2018-12-16T05:41:55.420Z,61.40
2018-12-16T05:44:23.306Z,62.60
2018-12-16T05:46:51.650Z,66.90
2018-12-16T05:49:25.951Z,63.80
2018-12-16T05:51:54.041Z,63.80
2018-12-16T05:54:21.888Z,64.00
2018-12-16T05:56:49.660Z,64.10
2018-12-16T05:59:17.277Z,65.00
2018-12-16T06:01:44.943Z,64.40
2018-12-16T06:04:13.007Z,64.10
2018-12-16T06:06:40.774Z,65.20
2018-12-16T06:09:08.647Z,64.80
2018-12-16T06:11:36.270Z,65.20
2018-12-16T06:14:03.976Z,65.40
2018-12-16T06:16:31.958Z,65.60
2018-12-16T06:18:59.791Z,66.00
2018-12-16T06:21:27.451Z,66.10
2018-12-16T06:23:55.684Z,65.40
2018-12-16T06:26:23.759Z,65.20
2018-12-16T06:28:51.672Z,65.10
2018-12-16T06:31:19.288Z,65.50
2018-12-16T06:33:48.300Z,64.80
2018-12-16T06:36:15.913Z,64.50
2018-12-16T06:38:43.652Z,64.80
2018-12-16T06:41:11.574Z,63.10
2018-12-16T06:43:40.646Z,63.80
2018-12-16T06:46:08.742Z,62.60
2018-12-16T06:48:36.568Z,63.70
2018-12-16T06:51:04.265Z,65.70
2018-12-16T06:53:32.008Z,64.00
2018-12-16T06:56:06.515Z,64.30
2018-12-16T06:58:30.253Z,63.00
2018-12-16T07:00:58.234Z,64.10
2018-12-16T07:03:26.254Z,65.00
2018-12-16T07:05:54.143Z,66.60
2018-12-16T07:08:21.838Z,63.60
2018-12-16T07:10:49.505Z,62.90
2018-12-16T07:13:17.725Z,64.60
2018-12-16T07:15:45.597Z,64.30
2018-12-16T07:18:14.142Z,66.30
2018-12-16T07:20:41.904Z,66.30
2018-12-16T07:23:09.865Z,66.50
2018-12-16T07:25:38.221Z,65.20
2018-12-16T07:28:05.856Z,64.10
2018-12-16T07:30:33.829Z,63.80
2018-12-16T07:33:01.858Z,62.70
2018-12-16T07:35:29.844Z,63.10
2018-12-16T07:37:58.540Z,63.10
2018-12-16T07:40:33.095Z,62.30
2018-12-16T07:43:00.974Z,62.10
2018-12-16T07:45:29.015Z,61.60
2018-12-16T07:47:56.725Z,61.90
2018-12-16T07:50:24.701Z,62.40
2018-12-16T07:52:53.773Z,59.20
2018-12-16T07:55:21.767Z,59.50
2018-12-16T07:57:49.553Z,61.70
2018-12-16T08:00:17.607Z,60.90
2018-12-16T08:02:45.444Z,61.50
2018-12-16T08:05:13.290Z,62.00
2018-12-16T08:07:42.118Z,62.30
2018-12-16T08:10:10.098Z,62.40
2018-12-16T08:12:37.801Z,63.40
2018-12-16T08:15:07.082Z,63.50
2018-12-16T08:17:34.875Z,62.90
2018-12-16T08:20:03.344Z,63.00
2018-12-16T08:22:32.472Z,63.30
2018-12-16T08:25:00.157Z,63.10
2018-12-16T08:27:27.866Z,62.50
2018-12-16T08:29:55.735Z,63.20
2018-12-16T08:32:23.430Z,64.60
2018-12-16T08:34:51.262Z,64.90
2018-12-16T08:37:19.284Z,65.10
2018-12-16T08:39:47.149Z,66.90
2018-12-16T08:42:15.116Z,66.00
2018-12-16T08:44:44.016Z,65.90
2018-12-16T08:47:13.027Z,66.60
2018-12-16T08:49:41.332Z,67.10
2018-12-16T08:52:10.130Z,66.00
2018-12-16T08:54:38.038Z,65.10
2018-12-16T08:57:05.701Z,65.10
2018-12-16T08:59:33.583Z,64.00
2018-12-16T09:02:01.434Z,64.10
2018-12-16T09:04:29.022Z,63.60
2018-12-16T09:06:57.053Z,62.90
2018-12-16T09:09:25.493Z,60.80
2018-12-16T09:11:53.794Z,61.70
2018-12-16T09:14:21.408Z,62.20
2018-12-16T09:16:49.382Z,62.30
2018-12-16T09:19:17.755Z,63.90
2018-12-16T09:21:46.095Z,65.10
2018-12-16T09:24:14.200Z,65.00
2018-12-16T09:26:41.961Z,66.10
2018-12-16T09:29:09.693Z,66.00
2018-12-16T09:31:37.466Z,66.20
2018-12-16T09:34:05.258Z,66.00
2018-12-16T09:36:33.399Z,66.50
2018-12-16T09:39:01.421Z,68.20
2018-12-16T09:41:29.328Z,68.10
2018-12-16T09:43:58.232Z,68.30
2018-12-16T09:46:26.188Z,68.10
2018-12-16T09:48:54.238Z,69.10
2018-12-16T09:51:22.862Z,67.70
2018-12-16T09:53:50.711Z,69.20
2018-12-16T09:56:18.851Z,68.90
2018-12-16T09:58:46.904Z,66.50
2018-12-16T10:01:14.877Z,66.20
2018-12-16T10:03:42.892Z,66.20
2018-12-16T10:06:11.639Z,65.30
2018-12-16T10:08:40.096Z,65.70
2018-12-16T10:11:07.913Z,66.20
2018-12-16T10:13:36.547Z,65.50
2018-12-16T10:16:04.588Z,66.10
2018-12-16T10:18:32.536Z,67.10
2018-12-16T10:21:00.323Z,66.10
2018-12-16T10:23:28.247Z,66.70
2018-12-16T10:25:56.003Z,66.40
2018-12-16T10:28:31.193Z,67.70
2018-12-16T10:30:59.479Z,67.90
2018-12-16T10:33:27.431Z,67.20
2018-12-16T10:35:56.683Z,67.40
2018-12-16T10:38:24.711Z,67.90
2018-12-16T10:40:52.644Z,68.20
2018-12-16T10:43:24.779Z,69.20
2018-12-16T10:45:52.701Z,68.60
2018-12-16T10:48:20.766Z,68.70
2018-12-16T10:50:48.720Z,70.30
2018-12-16T10:53:16.380Z,70.50
2018-12-16T10:55:44.559Z,70.70
2018-12-16T10:58:12.209Z,70.50
2018-12-16T11:00:46.296Z,70.10
2018-12-16T11:03:15.271Z,70.20
2018-12-16T11:05:43.628Z,70.90
2018-12-16T11:08:11.563Z,70.40
2018-12-16T11:10:39.789Z,71.20
2018-12-16T11:13:08.258Z,72.20
2018-12-16T11:15:36.388Z,73.00
2018-12-16T11:18:04.479Z,74.00
2018-12-16T11:20:32.345Z,74.50
2018-12-16T11:23:00.273Z,73.90
2018-12-16T11:25:28.490Z,75.10
2018-12-16T11:27:56.746Z,76.90
2018-12-16T11:30:24.585Z,76.70
2018-12-16T11:32:52.323Z,77.80
2018-12-16T11:35:20.429Z,78.40
2018-12-16T11:37:48.351Z,76.30
2018-12-16T11:40:16.506Z,75.00
2018-12-16T11:42:45.424Z,74.80
2018-12-16T12:34:17.866Z,74.90
2018-12-16T12:36:45.581Z,75.60
2018-12-16T12:59:34.750Z,79.90
2018-12-16T13:02:03.721Z,77.90
2018-12-16T13:04:32.186Z,77.90
2018-12-16T13:07:00.330Z,78.20
2018-12-16T13:09:27.934Z,78.30
2018-12-16T13:11:57.155Z,78.00
2018-12-16T13:14:25.534Z,78.00
2018-12-16T13:16:53.404Z,78.30
2018-12-16T13:19:22.360Z,77.60
2018-12-16T13:21:51.553Z,77.30
2018-12-16T13:24:20.351Z,75.60
2018-12-16T13:26:49.433Z,75.60
2018-12-16T13:29:17.225Z,75.90
2018-12-16T13:31:45.960Z,77.50
2018-12-16T13:34:14.748Z,77.50
2018-12-16T13:36:42.664Z,77.40
2018-12-16T13:39:10.608Z,78.20
2018-12-16T13:41:38.501Z,77.80
2018-12-16T13:44:06.312Z,78.20
2018-12-16T13:46:35.326Z,78.20
2018-12-16T13:49:03.334Z,76.80
2018-12-16T13:51:31.058Z,76.80
2018-12-16T13:54:00.197Z,77.50
2018-12-16T13:56:28.270Z,77.20
2018-12-16T13:58:56.731Z,78.80
2018-12-16T14:01:24.880Z,78.50
2018-12-16T14:03:53.197Z,77.80
2018-12-16T14:06:21.556Z,75.90
2018-12-16T14:08:49.701Z,75.00
2018-12-16T14:11:18.846Z,74.70
2018-12-16T14:13:48.012Z,75.50
2018-12-16T14:16:16.135Z,76.80
2018-12-16T14:18:44.057Z,76.60
2018-12-16T14:21:12.506Z,77.80
2018-12-16T14:23:40.593Z,79.20
2018-12-16T14:26:08.391Z,80.00
2018-12-16T14:28:37.490Z,80.70
2018-12-16T14:31:05.335Z,82.50
2018-12-16T14:33:33.131Z,86.20
2018-12-16T14:36:01.887Z,84.70
2018-12-16T14:38:30.080Z,83.70
2018-12-16T14:40:59.453Z,83.40
2018-12-16T14:43:28.881Z,83.40
2018-12-16T14:45:56.916Z,83.50
2018-12-16T14:48:26.109Z,84.90
2018-12-16T14:50:53.968Z,87.80
2018-12-16T14:53:23.092Z,89.40
2018-12-16T14:55:55.119Z,90.70
2018-12-16T14:58:21.719Z,91.40
2018-12-16T15:00:50.683Z,91.70
2018-12-16T15:03:18.493Z,91.60
2018-12-16T15:05:46.293Z,93.30
2018-12-16T15:08:14.084Z,94.20
2018-12-16T15:10:42.432Z,93.90
2018-12-16T15:13:10.204Z,94.40
2018-12-16T15:15:38.011Z,94.40
2018-12-16T15:18:06.179Z,95.20
2018-12-16T15:20:33.931Z,95.90
2018-12-16T15:23:02.255Z,96.90
2018-12-16T15:25:29.997Z,97.20
2018-12-16T15:27:59.138Z,97.90
2018-12-16T15:30:26.818Z,97.60
2018-12-16T15:32:54.730Z,96.60
2018-12-16T15:35:23.924Z,96.40
2018-12-16T15:37:51.852Z,97.20
2018-12-16T15:40:19.763Z,97.10
2018-12-16T15:42:48.097Z,96.60
2018-12-16T15:45:15.854Z,96.20
2018-12-16T15:47:43.924Z,96.40
2018-12-16T15:50:12.411Z,96.60
2018-12-16T15:52:41.771Z,97.00
2018-12-16T15:55:10.400Z,97.60
2018-12-16T15:57:39.032Z,97.90
2018-12-16T16:00:07.224Z,97.50
2018-12-16T16:02:35.096Z,97.70
2018-12-16T16:05:03.247Z,97.90
2018-12-16T16:07:31.793Z,98.10
2018-12-16T16:09:59.812Z,98.20
2018-12-16T16:12:28.065Z,97.90
2018-12-16T16:14:56.271Z,97.30
2018-12-16T16:17:28.128Z,96.90
2018-12-16T16:19:56.052Z,97.30
2018-12-16T16:22:24.353Z,97.50
2018-12-16T16:24:52.276Z,98.00
2018-12-16T16:27:20.082Z,97.50
2018-12-16T16:29:48.055Z,97.00
2018-12-16T16:32:15.918Z,97.30
2018-12-16T16:34:43.781Z,97.00
2018-12-16T16:37:12.365Z,97.10
2018-12-16T16:39:40.192Z,97.40
2018-12-16T16:42:08.530Z,97.70
2018-12-16T16:44:36.870Z,98.30
2018-12-16T16:47:04.940Z,98.20
2018-12-16T16:49:32.923Z,98.00
2018-12-16T16:52:01.663Z,98.10
2018-12-16T16:54:29.438Z,98.60
2018-12-16T16:56:57.302Z,98.40
2018-12-16T16:59:26.149Z,98.50
2018-12-16T17:01:54.206Z,98.50
2018-12-16T17:04:22.572Z,98.50
2018-12-16T17:06:50.287Z,98.50
2018-12-16T17:09:18.338Z,98.60
2018-12-16T17:11:46.197Z,99.00
2018-12-16T17:14:14.631Z,99.60
2018-12-16T17:16:42.886Z,99.90
2018-12-16T17:19:11.803Z,99.90
2018-12-16T17:21:40.499Z,99.90
2018-12-16T17:24:09.080Z,99.90
2018-12-16T17:26:36.969Z,99.90
2018-12-16T17:29:05.327Z,99.90
2018-12-16T17:31:33.134Z,99.90
2018-12-16T17:34:00.805Z,99.90
2018-12-16T17:36:28.628Z,99.90
2018-12-16T17:38:56.589Z,99.90
2018-12-16T17:41:24.423Z,99.90
2018-12-16T17:43:52.330Z,99.90
2018-12-16T17:46:20.686Z,99.90
2018-12-16T17:48:49.594Z,99.90
2018-12-16T17:51:17.445Z,99.90
2018-12-16T17:53:45.348Z,99.90
2018-12-16T17:56:13.397Z,99.90
2018-12-16T17:58:41.253Z,99.90
2018-12-16T18:01:09.021Z,99.80
2018-12-16T18:03:37.988Z,99.90
2018-12-16T18:06:06.243Z,99.90
2018-12-16T18:08:34.817Z,99.90
2018-12-16T18:11:02.732Z,99.90
2018-12-16T18:13:31.121Z,99.90
2018-12-16T18:15:59.208Z,99.90
2018-12-16T18:18:27.735Z,99.90
2018-12-16T18:20:55.525Z,99.90
2018-12-16T18:24:42.819Z,99.90
2018-12-16T18:27:10.853Z,99.90
2018-12-16T18:29:39.222Z,99.90
2018-12-16T18:32:07.570Z,99.90
2018-12-16T18:34:35.288Z,99.90
2018-12-16T18:37:03.131Z,99.40
2018-12-16T18:39:31.198Z,99.50
2018-12-16T18:41:59.249Z,98.20
2018-12-16T18:44:26.992Z,97.50
2018-12-16T18:46:56.002Z,97.90
2018-12-16T18:49:23.847Z,98.60
2018-12-16T18:51:52.575Z,98.50
2018-12-16T18:54:20.322Z,98.50
2018-12-16T18:56:51.190Z,98.50
2018-12-16T18:59:18.048Z,99.00
2018-12-16T19:01:46.508Z,99.50
2018-12-16T19:04:14.343Z,99.80
2018-12-16T19:06:42.115Z,99.80
2018-12-16T19:09:11.312Z,99.90
2018-12-16T19:11:39.268Z,99.90
2018-12-16T19:14:08.444Z,99.90
2018-12-16T19:16:36.475Z,99.90
2018-12-16T19:19:04.750Z,99.90
2018-12-16T19:21:32.755Z,99.80
2018-12-16T19:24:01.485Z,99.70
2018-12-16T19:26:29.259Z,99.90
2018-12-16T19:28:57.033Z,99.80
2018-12-16T19:31:25.008Z,99.70
2018-12-16T19:33:52.755Z,99.60
2018-12-16T19:36:20.858Z,99.90
2018-12-16T19:38:48.770Z,99.80
2018-12-16T19:41:16.747Z,99.10
2018-12-16T19:43:45.440Z,98.30
2018-12-16T19:46:13.691Z,98.50
2018-12-16T19:48:42.798Z,99.20
2018-12-16T19:51:11.351Z,99.10
2018-12-16T19:53:39.541Z,98.50
2018-12-16T19:56:07.761Z,97.20
2018-12-16T19:58:36.347Z,97.90
2018-12-16T20:01:04.792Z,98.70
2018-12-16T20:03:33.194Z,96.90
2018-12-16T20:06:06.665Z,96.30
2018-12-16T20:08:34.726Z,95.10
2018-12-16T20:11:03.680Z,95.00
2018-12-16T20:13:32.626Z,95.60
2018-12-16T20:16:01.578Z,97.40
2018-12-16T20:18:29.560Z,97.20
2018-12-16T20:20:58.324Z,97.10
2018-12-16T20:23:26.736Z,96.90
2018-12-16T20:25:54.607Z,96.70
2018-12-16T20:28:22.870Z,96.90
2018-12-16T20:30:51.044Z,96.90
2018-12-16T20:33:20.030Z,97.00
2018-12-16T20:35:48.517Z,97.70
2018-12-16T20:38:17.002Z,99.10
2018-12-16T20:40:44.998Z,99.50
2018-12-16T20:43:14.051Z,99.60
2018-12-16T20:45:41.914Z,99.90
2018-12-16T20:48:10.013Z,99.90
2018-12-16T20:50:38.913Z,99.90
2018-12-16T20:53:07.199Z,99.90
2018-12-16T20:55:35.969Z,99.90
2018-12-16T20:58:04.070Z,99.90
2018-12-16T21:00:33.004Z,99.90
2018-12-16T21:03:08.185Z,99.90
2018-12-16T21:05:36.679Z,99.60
2018-12-16T21:08:05.471Z,99.90
2018-12-16T21:10:33.793Z,99.90
2018-12-16T21:13:08.034Z,99.10
2018-12-16T21:15:41.621Z,98.90
2018-12-16T21:18:14.969Z,99.20
2018-12-16T21:20:42.632Z,99.20
2018-12-16T21:23:10.452Z,99.20
2018-12-16T21:25:38.145Z,99.10
2018-12-16T21:28:06.026Z,97.60
2018-12-16T21:30:34.939Z,97.90
2018-12-16T21:33:03.219Z,98.90
2018-12-16T21:35:31.111Z,98.60
2018-12-16T21:37:59.828Z,98.50
2018-12-16T21:40:28.371Z,97.50
2018-12-16T21:42:56.247Z,95.50
2018-12-16T21:45:24.252Z,95.60
2018-12-16T21:47:52.889Z,96.80
2018-12-16T21:50:20.576Z,97.30
2018-12-16T21:52:48.929Z,97.20
2018-12-16T21:55:17.730Z,97.80
2018-12-16T21:57:45.531Z,98.50
2018-12-16T22:00:13.276Z,98.20
2018-12-16T22:02:42.054Z,96.60
2018-12-16T22:05:11.387Z,96.10
2018-12-16T22:07:40.492Z,96.80
2018-12-16T22:10:08.828Z,97.20
2018-12-16T22:12:36.526Z,95.90
2018-12-16T22:15:05.119Z,96.20
2018-12-16T22:17:33.295Z,96.30
2018-12-16T22:20:00.935Z,95.30
2018-12-16T22:22:29.901Z,94.20
2018-12-16T22:24:57.692Z,94.10
2018-12-16T22:27:26.201Z,94.40
2018-12-16T22:29:54.347Z,94.40
2018-12-16T22:32:22.048Z,94.30
2018-12-16T22:34:49.973Z,94.30
2018-12-16T22:37:18.324Z,94.60
2018-12-16T22:39:46.554Z,94.70
2018-12-16T22:42:14.463Z,96.30
2018-12-16T22:44:42.290Z,96.10
2018-12-16T22:47:10.200Z,94.90
2018-12-16T22:49:37.911Z,94.60
2018-12-16T22:52:05.839Z,94.90
2018-12-16T22:54:33.821Z,95.50
2018-12-16T22:57:01.542Z,96.30
2018-12-16T22:59:29.566Z,97.40
2018-12-16T23:01:57.930Z,97.10
2018-12-16T23:04:25.600Z,98.00
2018-12-16T23:06:53.313Z,98.60
2018-12-16T23:09:21.563Z,98.30
2018-12-16T23:11:49.247Z,98.20
2018-12-16T23:14:17.215Z,97.10
2018-12-16T23:16:45.476Z,95.50
2018-12-16T23:19:13.281Z,95.40
2018-12-16T23:21:41.455Z,95.50
2018-12-16T23:24:09.663Z,95.80
2018-12-16T23:26:37.396Z,94.10
2018-12-16T23:29:05.067Z,94.70
2018-12-16T23:31:33.751Z,95.20
2018-12-16T23:34:01.642Z,94.90
2018-12-16T23:36:29.346Z,95.70
2018-12-16T23:38:57.759Z,95.50
2018-12-16T23:41:26.614Z,94.50
2018-12-16T23:43:54.298Z,94.50
2018-12-16T23:46:21.981Z,94.70
2018-12-16T23:48:50.427Z,94.30
2018-12-16T23:51:18.271Z,93.10
2018-12-16T23:53:46.366Z,93.90
2018-12-16T23:56:15.193Z,94.40
2018-12-16T23:58:42.898Z,95.40
